createdAt,value
2022-09-04T00:03:15.723Z,101117.77
2022-09-04T00:06:52.057Z,101118.44
2022-09-04T00:10:24.178Z,101125.40
2022-09-04T00:13:58.552Z,101121.67
2022-09-04T00:17:30.572Z,101121.29
2022-09-04T00:21:05.452Z,101123.36
2022-09-04T00:24:37.672Z,101119.98
2022-09-04T00:28:13.255Z,101118.20
2022-09-04T00:31:47.291Z,101119.05
2022-09-04T00:35:19.720Z,101121.49
2022-09-04T00:38:53.949Z,101117.58
2022-09-04T00:42:36.221Z,101121.95
2022-09-04T00:46:25.646Z,101118.05
2022-09-04T00:50:15.497Z,101120.98
2022-09-04T00:54:11.734Z,101124.79
2022-09-04T00:58:10.677Z,101122.46
2022-09-04T01:01:38.621Z,101122.77
2022-09-04T01:05:33.000Z,101125.17
2022-09-04T01:09:27.606Z,101128.43
2022-09-04T01:13:04.615Z,101127.67
2022-09-04T01:16:38.509Z,101130.21
2022-09-04T01:20:15.789Z,101126.10
2022-09-04T01:24:01.145Z,101133.39
2022-09-04T01:27:33.578Z,101135.23
2022-09-04T01:31:08.523Z,101130.41
2022-09-04T01:34:46.656Z,101130.45
2022-09-04T01:38:21.093Z,101137.19
2022-09-04T01:41:54.723Z,101136.21
2022-09-04T01:45:46.536Z,101132.61
2022-09-04T01:49:21.674Z,101136.67
2022-09-04T01:52:54.959Z,101139.32
2022-09-04T01:56:27.226Z,101140.60
2022-09-04T02:00:08.286Z,101138.02
2022-09-04T02:03:46.794Z,101142.46
2022-09-04T02:07:26.799Z,101141.46
2022-09-04T02:11:03.300Z,101142.71
2022-09-04T02:14:42.694Z,101143.45
2022-09-04T02:18:20.882Z,101142.98
2022-09-04T02:22:01.121Z,101147.05
2022-09-04T02:25:33.641Z,101146.56
2022-09-04T02:29:04.691Z,101148.00
2022-09-04T02:32:38.972Z,101143.51
2022-09-04T02:36:14.524Z,101143.39
2022-09-04T02:39:56.443Z,101139.74
2022-09-04T02:43:41.617Z,101143.83
2022-09-04T02:47:19.782Z,101144.02
2022-09-04T02:51:05.536Z,101136.87
2022-09-04T02:54:45.431Z,101138.83
2022-09-04T02:58:16.603Z,101138.89
2022-09-04T03:01:52.326Z,101135.94
2022-09-04T03:05:22.756Z,101140.33
2022-09-04T03:08:54.920Z,101141.96
2022-09-04T03:12:35.918Z,101149.73
2022-09-04T03:16:11.789Z,101150.50
2022-09-04T03:19:48.172Z,101150.55
2022-09-04T03:23:21.922Z,101145.87
2022-09-04T03:26:54.076Z,101144.16
2022-09-04T03:30:22.039Z,101147.73
2022-09-04T03:33:54.463Z,101149.34
2022-09-04T03:37:43.072Z,101154.10
2022-09-04T03:41:30.393Z,101147.81
2022-09-04T03:45:12.462Z,101152.38
2022-09-04T03:48:54.947Z,101147.02
2022-09-04T03:52:33.092Z,101155.27
2022-09-04T03:56:40.254Z,101158.10
2022-09-04T04:00:13.100Z,101165.36
2022-09-04T04:03:58.935Z,101168.93
2022-09-04T04:07:41.404Z,101167.27
2022-09-04T04:11:21.987Z,101165.95
2022-09-04T04:15:09.355Z,101169.22
2022-09-04T04:18:54.300Z,101168.84
2022-09-04T04:22:36.010Z,101172.09
2022-09-04T04:26:16.332Z,101178.85
2022-09-04T04:30:05.559Z,101185.83
2022-09-04T04:33:52.804Z,101190.02
2022-09-04T04:37:46.730Z,101192.36
2022-09-04T04:41:32.089Z,101195.93
2022-09-04T04:45:38.442Z,101200.19
2022-09-04T04:49:31.282Z,101205.57
2022-09-04T04:53:14.691Z,101210.35
2022-09-04T04:56:52.254Z,101211.06
2022-09-04T05:00:27.529Z,101212.88
2022-09-04T05:04:08.068Z,101213.48
2022-09-04T05:07:49.252Z,101214.01
2022-09-04T05:11:31.400Z,101220.57
2022-09-04T05:15:12.894Z,101220.19
2022-09-04T05:18:50.962Z,101219.49
2022-09-04T05:22:37.962Z,101221.96
2022-09-04T05:26:18.993Z,101222.73
2022-09-04T05:29:53.840Z,101222.17
2022-09-04T05:33:31.016Z,101223.36
2022-09-04T05:37:09.251Z,101222.08
2022-09-04T05:40:50.870Z,101222.89
2022-09-04T05:44:36.611Z,101229.23
2022-09-04T05:48:23.726Z,101223.63
2022-09-04T05:52:26.643Z,101225.41
2022-09-04T05:56:09.000Z,101232.84
2022-09-04T06:00:07.907Z,101230.05
2022-09-04T06:04:23.328Z,101237.60
2022-09-04T06:07:58.716Z,101244.48
2022-09-04T06:11:49.928Z,101249.59
2022-09-04T06:15:34.247Z,101252.85
2022-09-04T06:19:25.427Z,101261.44
2022-09-04T06:23:16.656Z,101265.00
2022-09-04T06:27:05.832Z,101268.22
2022-09-04T06:30:53.686Z,101275.27
2022-09-04T06:34:36.319Z,101273.52
2022-09-04T06:38:43.591Z,101273.95
2022-09-04T06:42:26.933Z,101284.20
2022-09-04T06:46:05.321Z,101278.39
2022-09-04T06:49:46.552Z,101278.30
2022-09-04T06:53:27.410Z,101279.01
2022-09-04T06:57:10.342Z,101284.59
2022-09-04T07:00:46.931Z,101288.04
2022-09-04T07:04:21.231Z,101287.74
2022-09-04T07:07:58.217Z,101288.83
2022-09-04T07:11:44.297Z,101289.86
2022-09-04T07:15:50.104Z,101290.79
2022-09-04T07:19:37.731Z,101294.81
2022-09-04T07:23:32.795Z,101300.55
2022-09-04T07:27:06.963Z,101306.23
2022-09-04T07:30:39.733Z,101307.77
2022-09-04T07:34:19.789Z,101308.14
2022-09-04T07:37:58.691Z,101315.07
2022-09-04T07:41:54.189Z,101310.66
2022-09-04T07:45:35.338Z,101312.65
2022-09-04T07:49:09.690Z,101311.65
2022-09-04T07:52:53.469Z,101316.04
2022-09-04T07:56:31.178Z,101317.98
2022-09-04T08:00:15.304Z,101320.46
2022-09-04T08:04:02.450Z,101326.58
2022-09-04T08:07:58.862Z,101323.54
2022-09-04T08:11:45.642Z,101330.08
2022-09-04T08:15:28.006Z,101331.98
2022-09-04T08:19:18.080Z,101330.84
2022-09-04T08:22:54.414Z,101336.45
2022-09-04T08:26:33.577Z,101337.02
2022-09-04T08:30:08.619Z,101337.23
2022-09-04T08:34:15.265Z,101339.55
2022-09-04T08:37:52.289Z,101347.75
2022-09-04T08:42:04.993Z,101349.04
2022-09-04T08:46:07.645Z,101351.66
2022-09-04T08:50:09.584Z,101354.98
2022-09-04T08:54:17.375Z,101355.98
2022-09-04T08:58:17.426Z,101354.21
2022-09-04T09:02:16.280Z,101356.85
2022-09-04T09:06:07.184Z,101355.88
2022-09-04T09:10:03.815Z,101355.02
2022-09-04T09:14:15.905Z,101354.64
2022-09-04T09:18:02.089Z,101355.47
2022-09-04T09:21:43.299Z,101353.42
2022-09-04T09:25:27.631Z,101356.02
2022-09-04T09:29:20.382Z,101358.63
2022-09-04T09:33:26.307Z,101363.35
2022-09-04T09:37:16.054Z,101362.91
2022-09-04T09:41:01.321Z,101367.11
2022-09-04T09:45:23.145Z,101366.25
2022-09-04T09:49:34.674Z,101367.23
2022-09-04T09:53:39.867Z,101362.41
2022-09-04T09:57:41.098Z,101360.17
2022-09-04T10:01:27.612Z,101360.19
2022-09-04T10:05:33.267Z,101358.08
2022-09-04T10:09:24.088Z,101359.02
2022-09-04T10:13:19.508Z,101358.74
2022-09-04T10:17:24.003Z,101357.48
2022-09-04T10:21:16.120Z,101358.61
2022-09-04T10:25:14.076Z,101355.50
2022-09-04T10:29:12.088Z,101349.70
2022-09-04T10:33:26.536Z,101351.55
2022-09-04T10:37:08.090Z,101339.70
2022-09-04T10:40:50.765Z,101334.92
2022-09-04T10:44:42.513Z,101330.55
2022-09-04T10:48:28.572Z,101328.31
2022-09-04T10:52:25.512Z,101328.75
2022-09-04T10:56:05.961Z,101320.66
2022-09-04T11:00:06.828Z,101321.00
2022-09-04T11:04:13.274Z,101326.87
2022-09-04T11:07:55.858Z,101323.43
2022-09-04T11:11:46.103Z,101321.61
2022-09-04T11:15:36.973Z,101322.11
2022-09-04T11:19:36.830Z,101320.17
2022-09-04T11:23:34.361Z,101320.30
2022-09-04T11:27:39.606Z,101319.05
2022-09-04T11:31:25.425Z,101322.17
2022-09-04T11:35:19.432Z,101326.80
2022-09-04T11:39:09.427Z,101318.94
2022-09-04T11:42:47.226Z,101312.79
2022-09-04T11:46:47.914Z,101294.23
2022-09-04T11:50:38.246Z,101303.85
2022-09-04T11:54:51.188Z,101307.31
2022-09-04T11:58:36.496Z,101306.39
2022-09-04T12:02:31.977Z,101315.63
2022-09-04T12:06:43.574Z,101310.77
2022-09-04T12:10:32.703Z,101310.38
2022-09-04T12:14:19.820Z,101317.79
2022-09-04T12:18:22.705Z,101317.46
2022-09-04T12:22:20.200Z,101314.89
2022-09-04T12:26:17.328Z,101309.82
2022-09-04T12:30:08.258Z,101311.83
2022-09-04T12:34:01.844Z,101312.55
2022-09-04T12:38:01.915Z,101312.10
2022-09-04T12:41:40.297Z,101314.23
2022-09-04T12:45:21.903Z,101314.42
2022-09-04T12:49:26.295Z,101316.79
2022-09-04T12:53:15.479Z,101316.53
2022-09-04T12:56:54.155Z,101316.70
2022-09-04T13:00:40.921Z,101315.83
2022-09-04T13:04:49.444Z,101319.23
2022-09-04T13:08:27.147Z,101319.30
2022-09-04T13:12:09.129Z,101315.95
2022-09-04T13:15:50.122Z,101314.95
2022-09-04T13:19:40.397Z,101303.70
2022-09-04T13:23:26.033Z,101313.18
2022-09-04T13:27:30.362Z,101320.41
2022-09-04T13:31:21.805Z,101321.39
2022-09-04T13:35:09.427Z,101318.11
2022-09-04T13:39:15.842Z,101315.99
2022-09-04T13:43:21.394Z,101322.98
2022-09-04T13:46:54.540Z,101327.86
2022-09-04T13:50:29.357Z,101322.04
2022-09-04T13:54:07.804Z,101327.23
2022-09-04T13:57:42.669Z,101317.80
2022-09-04T14:01:22.638Z,101317.70
2022-09-04T14:04:53.515Z,101319.66
2022-09-04T14:08:21.263Z,101318.37
2022-09-04T14:12:04.388Z,101320.54
2022-09-04T14:15:46.219Z,101320.06
2022-09-04T14:19:32.549Z,101326.55
2022-09-04T14:23:09.672Z,101327.58
2022-09-04T14:26:44.219Z,101325.81
2022-09-04T14:30:17.208Z,101327.91
2022-09-04T14:33:53.524Z,101329.51
2022-09-04T14:37:38.173Z,101327.61
2022-09-04T14:41:18.556Z,101329.61
2022-09-04T14:44:59.674Z,101336.95
2022-09-04T14:48:31.175Z,101333.02
2022-09-04T14:52:04.048Z,101330.73
2022-09-04T14:55:40.905Z,101320.66
2022-09-04T14:59:18.420Z,101319.08
2022-09-04T15:02:48.593Z,101326.21
2022-09-04T15:06:35.496Z,101330.13
2022-09-04T15:10:25.929Z,101327.71
2022-09-04T15:14:28.507Z,101336.71
2022-09-04T15:18:16.054Z,101340.34
2022-09-04T15:22:09.743Z,101339.81
2022-09-04T15:25:59.755Z,101344.52
2022-09-04T15:29:38.283Z,101345.34
2022-09-04T15:33:11.372Z,101351.10
2022-09-04T15:36:39.325Z,101347.89
2022-09-04T15:40:12.285Z,101350.17
2022-09-04T15:43:46.596Z,101357.73
2022-09-04T15:47:23.253Z,101359.84
2022-09-04T15:51:23.193Z,101354.55
2022-09-04T15:55:22.323Z,101359.98
2022-09-04T15:59:18.198Z,101361.95
2022-09-04T16:02:54.688Z,101363.48
2022-09-04T16:06:26.328Z,101362.27
2022-09-04T16:09:59.929Z,101361.55
2022-09-04T16:13:52.749Z,101361.76
2022-09-04T16:17:28.553Z,101363.91
2022-09-04T16:20:59.110Z,101366.54
2022-09-04T16:24:35.096Z,101356.96
2022-09-04T16:28:08.233Z,101355.29
2022-09-04T16:31:39.993Z,101362.23
2022-09-04T16:35:16.464Z,101366.42
2022-09-04T16:39:14.443Z,101372.86
2022-09-04T16:42:47.925Z,101373.16
2022-09-04T16:46:38.102Z,101376.02
2022-09-04T16:50:14.961Z,101382.38
2022-09-04T16:53:54.122Z,101386.95
2022-09-04T16:57:38.212Z,101390.10
2022-09-04T17:01:15.824Z,101386.48
2022-09-04T17:04:50.832Z,101385.34
2022-09-04T17:08:43.353Z,101388.18
2022-09-04T17:12:23.732Z,101389.73
2022-09-04T17:15:58.033Z,101390.73
2022-09-04T17:19:28.259Z,101395.65
2022-09-04T17:28:54.077Z,101403.58
2022-09-04T17:29:17.547Z,101413.12
2022-09-04T17:31:17.569Z,101414.42
2022-09-04T17:40:50.439Z,101425.08
2022-09-04T17:40:56.578Z,101419.14
2022-09-04T17:43:15.759Z,101428.20
2022-09-04T17:46:53.130Z,101435.35
2022-09-04T17:50:23.632Z,101444.09
2022-09-04T17:54:15.346Z,101446.44
2022-09-04T17:57:56.158Z,101451.95
2022-09-04T18:01:28.705Z,101450.57
2022-09-04T18:05:00.587Z,101453.09
2022-09-04T18:12:03.415Z,101463.02
2022-09-04T18:15:37.750Z,101464.64
2022-09-04T18:19:32.947Z,101467.52
2022-09-04T18:23:51.176Z,101470.03
2022-09-04T18:27:24.231Z,101485.30
2022-09-04T18:37:11.212Z,101494.17
2022-09-04T18:37:16.258Z,101498.79
2022-09-04T18:39:09.236Z,101506.08
2022-09-04T18:50:23.363Z,101507.31
2022-09-04T18:50:47.144Z,101515.41
2022-09-04T18:54:41.799Z,101524.59
2022-09-04T18:58:42.041Z,101524.76
2022-09-04T19:02:21.322Z,101525.09
2022-09-04T19:06:09.146Z,101524.71
2022-09-04T19:09:56.733Z,101528.21
2022-09-04T19:13:38.660Z,101529.42
2022-09-04T19:17:15.138Z,101533.46
2022-09-04T19:20:54.856Z,101532.55
2022-09-04T19:24:34.256Z,101534.98
2022-09-04T19:28:10.610Z,101539.00
2022-09-04T19:31:56.166Z,101542.15
2022-09-04T19:35:32.996Z,101547.23
2022-09-04T19:46:00.356Z,101551.05
2022-09-04T19:46:07.511Z,101550.57
2022-09-04T19:47:28.442Z,101551.02
2022-09-04T19:53:35.682Z,101557.52
2022-09-04T19:55:24.492Z,101559.41
2022-09-04T19:59:06.692Z,101561.66
2022-09-04T20:02:38.775Z,101567.80
2022-09-04T20:06:35.271Z,101571.10
2022-09-04T20:10:21.395Z,101572.13
2022-09-04T20:14:13.480Z,101574.38
2022-09-04T20:18:03.969Z,101579.27
2022-09-04T20:21:47.033Z,101583.09
2022-09-04T20:25:39.533Z,101583.86
2022-09-04T20:29:19.025Z,101583.82
2022-09-04T20:32:56.083Z,101584.98
2022-09-04T20:36:31.591Z,101586.88
2022-09-04T20:40:27.432Z,101585.94
2022-09-04T20:44:14.063Z,101585.34
2022-09-04T20:52:50.731Z,101588.48
2022-09-04T20:53:04.554Z,101592.83
2022-09-04T20:55:55.829Z,101599.48
2022-09-04T21:03:10.002Z,101603.48
2022-09-04T21:03:34.315Z,101602.36
2022-09-04T21:07:13.081Z,101606.87
2022-09-04T21:10:48.248Z,101609.13
2022-09-04T21:14:21.241Z,101609.76
2022-09-04T21:18:19.479Z,101619.40
2022-09-04T21:22:32.334Z,101620.05
2022-09-04T21:26:14.760Z,101630.04
2022-09-04T21:30:14.685Z,101631.89
2022-09-04T21:33:52.290Z,101633.95
2022-09-04T21:37:38.089Z,101639.31
2022-09-04T21:41:22.908Z,101641.02
2022-09-04T21:45:12.838Z,101645.66
2022-09-04T21:49:11.594Z,101648.55
2022-09-04T21:53:15.059Z,101652.88
2022-09-04T22:02:27.428Z,101653.29
2022-09-04T22:02:42.825Z,101657.02
2022-09-04T22:07:37.660Z,101661.27
2022-09-04T22:13:34.389Z,101659.88
2022-09-04T22:14:29.931Z,101666.79
2022-09-04T22:18:11.120Z,101663.56
2022-09-04T22:21:49.469Z,101661.71
2022-09-04T22:25:47.992Z,101661.62
2022-09-04T22:29:37.584Z,101661.16
2022-09-04T22:34:15.246Z,101664.05
2022-09-04T22:38:12.392Z,101661.64
2022-09-04T22:41:59.008Z,101660.30
2022-09-04T22:46:08.274Z,101661.98
2022-09-04T22:49:56.732Z,101662.56
2022-09-04T22:54:08.189Z,101664.23
2022-09-04T22:58:10.119Z,101667.48
2022-09-04T23:02:15.667Z,101668.20
2022-09-04T23:09:10.718Z,101667.98
2022-09-04T23:13:50.522Z,101673.69
2022-09-04T23:14:55.107Z,101669.90
2022-09-04T23:20:51.501Z,101670.34
2022-09-04T23:26:46.045Z,101671.30
2022-09-04T23:27:28.491Z,101674.17
2022-09-04T23:31:29.341Z,101675.83
2022-09-04T23:35:41.619Z,101677.11
2022-09-04T23:40:04.412Z,101676.83
2022-09-04T23:44:25.638Z,101682.69
2022-09-04T23:48:27.442Z,101685.56
2022-09-04T23:52:34.147Z,101684.02
2022-09-04T23:56:40.526Z,101684.27
